createdAt,value
2023-05-09T00:01:12.962Z,7.02
2023-05-09T00:03:40.013Z,7.01
2023-05-09T00:06:07.410Z,7.00
2023-05-09T00:08:34.385Z,6.97
2023-05-09T00:11:02.016Z,6.97
2023-05-09T00:13:28.938Z,6.95
2023-05-09T00:15:57.479Z,6.94
2023-05-09T00:18:24.293Z,6.93
2023-05-09T00:20:51.048Z,6.92
2023-05-09T00:23:18.040Z,6.90
2023-05-09T00:25:44.819Z,6.90
2023-05-09T00:28:11.664Z,6.89
2023-05-09T00:30:38.481Z,6.87
2023-05-09T00:33:05.372Z,6.84
2023-05-09T00:35:32.497Z,6.83
2023-05-09T00:37:59.594Z,6.81
2023-05-09T00:40:26.517Z,6.79
2023-05-09T00:42:53.353Z,6.78
2023-05-09T00:45:20.151Z,6.78
2023-05-09T00:47:46.949Z,6.77
2023-05-09T00:50:13.967Z,6.76
2023-05-09T00:52:40.787Z,6.75
2023-05-09T00:55:08.616Z,6.74
2023-05-09T00:57:36.265Z,6.73
2023-05-09T01:00:04.564Z,6.72
2023-05-09T01:02:32.355Z,6.71
2023-05-09T01:04:59.313Z,6.69
2023-05-09T01:07:29.830Z,6.68
2023-05-09T01:09:58.275Z,6.67
2023-05-09T01:12:39.637Z,6.66
2023-05-09T01:15:19.115Z,6.64
2023-05-09T01:18:29.747Z,6.63
2023-05-09T01:21:04.178Z,6.62
2023-05-09T01:23:45.618Z,6.62
2023-05-09T01:26:43.444Z,6.60
2023-05-09T01:29:36.798Z,6.59
2023-05-09T01:32:07.876Z,6.57
2023-05-09T01:34:35.217Z,6.55
2023-05-09T01:37:02.634Z,6.55
2023-05-09T01:39:29.492Z,6.55
2023-05-09T01:41:57.154Z,6.56
2023-05-09T01:44:24.100Z,6.55
2023-05-09T01:46:52.866Z,6.54
2023-05-09T01:49:19.770Z,6.53
2023-05-09T01:51:46.510Z,6.52
2023-05-09T01:54:13.372Z,6.51
2023-05-09T01:56:40.161Z,6.50
2023-05-09T01:59:07.104Z,6.49
2023-05-09T02:01:34.252Z,6.48
2023-05-09T02:04:01.044Z,6.46
2023-05-09T02:06:30.022Z,6.45
2023-05-09T02:08:57.776Z,6.43
2023-05-09T02:11:25.957Z,6.42
2023-05-09T02:13:52.780Z,6.40
2023-05-09T02:16:20.678Z,6.39
2023-05-09T02:18:47.937Z,6.38
2023-05-09T02:21:14.742Z,6.37
2023-05-09T02:23:41.583Z,6.36
2023-05-09T02:26:08.428Z,6.34
2023-05-09T02:28:35.223Z,6.33
2023-05-09T02:31:02.176Z,6.32
2023-05-09T02:33:29.047Z,6.31
2023-05-09T02:35:55.998Z,6.31
2023-05-09T02:38:22.798Z,6.31
2023-05-09T02:40:51.002Z,6.29
2023-05-09T02:43:19.332Z,6.27
2023-05-09T02:45:46.297Z,6.25
2023-05-09T02:48:13.206Z,6.23
2023-05-09T02:50:42.928Z,6.21
2023-05-09T02:53:09.847Z,6.20
2023-05-09T02:55:36.678Z,6.20
2023-05-09T02:58:13.604Z,6.20
2023-05-09T03:00:42.650Z,6.22
2023-05-09T03:03:09.644Z,6.24
2023-05-09T03:05:36.551Z,6.25
2023-05-09T03:08:03.582Z,6.28
2023-05-09T03:10:30.691Z,6.31
2023-05-09T03:12:57.522Z,6.34
2023-05-09T03:15:24.439Z,6.38
2023-05-09T03:17:51.618Z,6.42
2023-05-09T03:20:18.547Z,6.45
2023-05-09T03:22:45.407Z,6.47
2023-05-09T03:25:12.407Z,6.49
2023-05-09T03:27:39.420Z,6.51
2023-05-09T03:30:09.337Z,6.52
2023-05-09T03:32:36.186Z,6.52
2023-05-09T03:35:03.135Z,6.54
2023-05-09T03:37:30.253Z,6.57
2023-05-09T03:39:57.028Z,6.61
2023-05-09T03:42:24.426Z,6.68
2023-05-09T03:44:52.780Z,6.75
2023-05-09T03:47:20.361Z,6.82
2023-05-09T03:49:47.218Z,6.87
2023-05-09T03:52:15.423Z,6.92
2023-05-09T03:54:42.980Z,6.97
2023-05-09T03:57:09.921Z,7.02
2023-05-09T03:59:38.082Z,7.05
2023-05-09T04:02:05.118Z,7.09
2023-05-09T04:04:31.920Z,7.12
2023-05-09T04:06:59.904Z,7.15
2023-05-09T04:09:27.488Z,7.18
2023-05-09T04:11:54.638Z,7.21
2023-05-09T04:14:21.464Z,7.24
2023-05-09T04:16:48.477Z,7.26
2023-05-09T04:19:15.325Z,7.28
2023-05-09T04:21:42.132Z,7.31
2023-05-09T04:24:09.052Z,7.35
2023-05-09T04:26:42.049Z,7.41
2023-05-09T04:29:11.644Z,7.46
2023-05-09T04:31:38.903Z,7.49
2023-05-09T04:34:06.640Z,7.52
2023-05-09T04:36:34.840Z,7.57
2023-05-09T04:39:02.161Z,7.59
2023-05-09T04:41:29.509Z,7.61
2023-05-09T04:43:56.427Z,7.63
2023-05-09T04:46:25.939Z,7.68
2023-05-09T04:48:53.290Z,7.75
2023-05-09T04:51:20.557Z,7.76
2023-05-09T04:53:47.331Z,7.78
2023-05-09T04:56:15.571Z,7.84
2023-05-09T04:58:42.766Z,7.94
2023-05-09T05:01:10.473Z,8.06
2023-05-09T05:03:38.421Z,8.20
2023-05-09T05:06:06.638Z,8.36
2023-05-09T05:08:33.759Z,8.49
2023-05-09T05:11:00.936Z,8.62
2023-05-09T05:13:28.193Z,8.70
2023-05-09T05:15:59.044Z,8.73
2023-05-09T05:18:25.943Z,8.72
2023-05-09T05:20:53.775Z,8.66
2023-05-09T05:23:20.934Z,8.60
2023-05-09T05:25:49.293Z,8.60
2023-05-09T05:28:16.861Z,8.64
2023-05-09T05:30:44.122Z,8.72
2023-05-09T05:33:11.494Z,8.83
2023-05-09T05:35:38.644Z,8.90
2023-05-09T05:38:05.516Z,8.94
2023-05-09T05:40:32.413Z,9.01
2023-05-09T05:43:02.042Z,9.09
2023-05-09T05:45:31.020Z,9.13
2023-05-09T05:47:58.537Z,9.20
2023-05-09T05:50:25.676Z,9.27
2023-05-09T05:52:52.925Z,9.35
2023-05-09T05:55:19.782Z,9.40
2023-05-09T05:57:47.744Z,9.48
2023-05-09T06:00:15.386Z,9.56
2023-05-09T06:02:48.029Z,9.68
2023-05-09T06:05:21.162Z,9.77
2023-05-09T06:07:48.132Z,9.88
2023-05-09T06:10:16.856Z,10.00
2023-05-09T06:12:44.422Z,10.10
2023-05-09T06:15:11.563Z,10.21
2023-05-09T06:17:40.439Z,10.34
2023-05-09T06:20:07.692Z,10.39
2023-05-09T06:22:34.473Z,10.50
2023-05-09T06:25:01.181Z,10.67
2023-05-09T06:27:28.032Z,10.88
2023-05-09T06:29:54.932Z,11.09
2023-05-09T06:32:21.948Z,11.25
2023-05-09T06:34:49.071Z,11.40
2023-05-09T06:37:16.103Z,11.51
2023-05-09T06:39:42.919Z,11.66
2023-05-09T06:42:09.883Z,11.79
2023-05-09T06:44:38.581Z,11.88
2023-05-09T06:47:05.479Z,11.91
2023-05-09T06:49:32.282Z,11.94
2023-05-09T06:51:59.157Z,11.99
2023-05-09T06:54:26.053Z,12.08
2023-05-09T06:56:52.930Z,12.17
2023-05-09T06:59:19.933Z,12.29
2023-05-09T07:01:46.930Z,12.34
2023-05-09T07:04:13.754Z,12.35
2023-05-09T07:06:40.790Z,12.41
2023-05-09T07:09:08.690Z,12.62
2023-05-09T07:11:38.604Z,12.88
2023-05-09T07:14:05.437Z,13.03
2023-05-09T07:16:33.225Z,13.13
2023-05-09T07:19:00.897Z,13.18
2023-05-09T07:21:27.701Z,13.22
2023-05-09T07:23:54.530Z,13.33
2023-05-09T07:26:21.606Z,13.44
2023-05-09T07:28:48.444Z,13.49
2023-05-09T07:31:15.324Z,13.54
2023-05-09T07:33:42.334Z,13.67
2023-05-09T07:36:13.187Z,13.74
2023-05-09T07:38:40.704Z,13.75
2023-05-09T07:41:07.588Z,13.75
2023-05-09T07:43:34.386Z,13.71
2023-05-09T07:46:02.049Z,13.83
2023-05-09T07:48:29.064Z,14.08
2023-05-09T07:50:55.975Z,14.33
2023-05-09T07:53:23.005Z,14.46
2023-05-09T07:55:50.285Z,14.65
2023-05-09T07:58:17.343Z,14.80
2023-05-09T08:00:44.153Z,14.84
2023-05-09T08:03:11.324Z,14.77
2023-05-09T08:05:38.342Z,14.59
2023-05-09T08:08:05.130Z,14.40
2023-05-09T08:10:33.681Z,14.23
2023-05-09T08:13:00.508Z,14.09
2023-05-09T08:15:27.351Z,13.93
2023-05-09T08:17:54.199Z,13.78
2023-05-09T08:20:21.033Z,13.69
2023-05-09T08:22:47.827Z,13.62
2023-05-09T08:25:16.922Z,13.58
2023-05-09T08:27:44.063Z,13.56
2023-05-09T08:30:11.729Z,13.62
2023-05-09T08:32:38.524Z,13.72
2023-05-09T08:35:06.306Z,13.76
2023-05-09T08:37:33.131Z,13.73
2023-05-09T08:39:59.949Z,13.60
2023-05-09T08:42:26.996Z,13.47
2023-05-09T08:44:53.790Z,13.47
2023-05-09T08:47:21.360Z,13.46
2023-05-09T08:49:49.430Z,13.37
2023-05-09T08:52:16.400Z,13.32
2023-05-09T08:54:43.276Z,13.34
2023-05-09T08:57:13.115Z,13.32
2023-05-09T08:59:40.951Z,13.28
2023-05-09T09:02:08.344Z,13.26
2023-05-09T09:04:35.563Z,13.29
2023-05-09T09:07:04.500Z,13.36
2023-05-09T09:09:31.979Z,13.44
2023-05-09T09:11:58.874Z,13.65
2023-05-09T09:14:26.242Z,13.83
2023-05-09T09:16:53.857Z,13.87
2023-05-09T09:19:21.008Z,13.84
2023-05-09T09:21:48.410Z,13.78
2023-05-09T09:24:15.596Z,13.79
2023-05-09T09:26:49.548Z,13.86
2023-05-09T09:29:17.161Z,14.01
2023-05-09T09:31:46.296Z,14.14
2023-05-09T09:34:16.790Z,14.22
2023-05-09T09:36:43.715Z,14.27
2023-05-09T09:39:10.841Z,14.33
2023-05-09T09:41:39.069Z,14.32
2023-05-09T09:44:10.605Z,14.29
2023-05-09T09:46:50.444Z,14.30
2023-05-09T09:49:19.763Z,14.34
2023-05-09T09:51:52.798Z,14.36
2023-05-09T09:54:20.066Z,14.35
2023-05-09T09:56:48.495Z,14.51
2023-05-09T09:59:17.825Z,14.78
2023-05-09T10:02:07.530Z,14.97
2023-05-09T10:04:36.684Z,15.06
2023-05-09T10:07:05.185Z,15.26
2023-05-09T10:09:33.010Z,15.45
2023-05-09T10:12:04.437Z,15.51
2023-05-09T10:14:34.831Z,15.43
2023-05-09T10:17:03.775Z,15.18
2023-05-09T10:19:30.972Z,14.93
2023-05-09T10:21:59.375Z,14.67
2023-05-09T10:24:49.384Z,14.55
2023-05-09T10:27:19.211Z,14.49
2023-05-09T10:29:51.850Z,14.55
2023-05-09T10:32:24.163Z,14.61
2023-05-09T10:34:53.558Z,14.56
2023-05-09T10:37:22.033Z,14.56
2023-05-09T10:39:53.432Z,14.67
2023-05-09T10:42:20.613Z,14.84
2023-05-09T10:44:48.304Z,14.88
2023-05-09T10:47:15.608Z,14.88
2023-05-09T10:49:43.368Z,14.86
2023-05-09T10:52:10.653Z,14.84
2023-05-09T10:54:37.577Z,14.82
2023-05-09T10:57:06.527Z,14.73
2023-05-09T10:59:35.948Z,14.60
2023-05-09T11:02:05.768Z,14.51
2023-05-09T11:04:32.979Z,14.38
2023-05-09T11:07:00.562Z,14.28
2023-05-09T11:09:39.218Z,14.28
2023-05-09T11:12:06.415Z,14.29
2023-05-09T11:14:36.691Z,14.28
2023-05-09T11:17:05.121Z,14.21
2023-05-09T11:19:38.358Z,14.23
2023-05-09T11:22:14.902Z,14.33
2023-05-09T11:25:06.177Z,14.43
2023-05-09T11:27:40.873Z,14.58
2023-05-09T11:30:17.955Z,14.71
2023-05-09T11:32:59.158Z,14.84
2023-05-09T11:35:29.143Z,14.87
2023-05-09T11:38:00.932Z,14.85
2023-05-09T11:40:28.285Z,14.78
2023-05-09T11:42:58.437Z,14.73
2023-05-09T11:45:30.632Z,14.77
2023-05-09T11:47:57.903Z,14.80
2023-05-09T11:50:24.904Z,14.87
2023-05-09T11:52:52.070Z,14.92
2023-05-09T11:55:22.229Z,14.97
2023-05-09T11:57:50.482Z,14.96
2023-05-09T12:00:22.078Z,14.97
2023-05-09T12:02:49.407Z,14.92
2023-05-09T12:05:20.874Z,14.84
2023-05-09T12:07:47.845Z,14.78
2023-05-09T12:10:16.623Z,14.67
2023-05-09T12:12:44.734Z,14.56
2023-05-09T12:15:13.828Z,14.55
2023-05-09T12:17:42.180Z,14.60
2023-05-09T12:20:09.525Z,14.64
2023-05-09T12:22:37.594Z,14.66
2023-05-09T12:25:09.640Z,14.64
2023-05-09T12:27:37.404Z,14.56
2023-05-09T12:30:11.116Z,14.52
2023-05-09T12:32:40.752Z,14.55
2023-05-09T12:35:09.593Z,14.55
2023-05-09T12:37:36.465Z,14.45
2023-05-09T12:40:15.545Z,14.29
2023-05-09T12:42:46.300Z,14.18
2023-05-09T12:45:14.251Z,14.18
2023-05-09T12:47:45.801Z,14.18
2023-05-09T12:50:13.516Z,14.16
2023-05-09T12:52:58.538Z,14.10
2023-05-09T12:55:29.751Z,14.07
2023-05-09T12:58:01.855Z,14.12
2023-05-09T13:00:28.992Z,14.14
2023-05-09T13:02:56.086Z,14.19
2023-05-09T13:05:23.539Z,14.29
2023-05-09T13:07:54.875Z,14.38
2023-05-09T13:10:27.603Z,14.40
2023-05-09T13:12:54.874Z,14.41
2023-05-09T13:15:22.729Z,14.45
2023-05-09T13:17:51.093Z,14.49
2023-05-09T13:20:19.503Z,14.45
2023-05-09T13:22:46.869Z,14.29
2023-05-09T13:25:13.921Z,14.10
2023-05-09T13:27:40.976Z,13.95
2023-05-09T13:30:08.685Z,13.80
2023-05-09T13:32:36.821Z,13.67
2023-05-09T13:35:06.831Z,13.55
2023-05-09T13:37:34.829Z,13.49
2023-05-09T13:40:02.416Z,13.44
2023-05-09T13:42:29.262Z,13.40
2023-05-09T13:44:56.081Z,13.36
2023-05-09T13:47:23.036Z,13.39
2023-05-09T13:49:49.911Z,13.43
2023-05-09T13:52:16.912Z,13.45
2023-05-09T13:54:43.776Z,13.49
2023-05-09T13:57:10.686Z,13.55
2023-05-09T13:59:37.691Z,13.58
2023-05-09T14:02:04.530Z,13.62
2023-05-09T14:04:34.456Z,13.63
2023-05-09T14:07:01.382Z,13.63
2023-05-09T14:09:28.998Z,13.62
2023-05-09T14:11:57.549Z,13.59
2023-05-09T14:14:24.800Z,13.54
2023-05-09T14:16:51.764Z,13.52
2023-05-09T14:19:18.812Z,13.50
2023-05-09T14:21:47.436Z,13.49
2023-05-09T14:24:16.122Z,13.49
2023-05-09T14:26:43.937Z,13.50
2023-05-09T14:29:10.787Z,13.49
2023-05-09T14:31:37.664Z,13.44
2023-05-09T14:34:05.618Z,13.40
2023-05-09T14:36:32.917Z,13.37
2023-05-09T14:38:59.895Z,13.36
2023-05-09T14:41:26.968Z,13.35
2023-05-09T14:43:53.939Z,13.34
2023-05-09T14:46:20.990Z,13.32
2023-05-09T14:48:48.041Z,13.30
2023-05-09T14:51:15.038Z,13.27
2023-05-09T14:53:42.363Z,13.25
2023-05-09T14:56:09.546Z,13.21
2023-05-09T14:58:36.454Z,13.17
2023-05-09T15:01:04.368Z,13.14
2023-05-09T15:03:31.293Z,13.13
2023-05-09T15:05:58.891Z,13.11
2023-05-09T15:08:26.111Z,13.07
2023-05-09T15:10:53.006Z,13.04
2023-05-09T15:13:20.053Z,13.02
2023-05-09T15:15:48.665Z,12.99
2023-05-09T15:18:17.329Z,12.93
2023-05-09T15:20:44.258Z,12.87
2023-05-09T15:23:12.485Z,12.81
2023-05-09T15:25:41.156Z,12.76
2023-05-09T15:28:07.987Z,12.73
2023-05-09T15:30:38.255Z,12.70
2023-05-09T15:33:05.484Z,12.68
2023-05-09T15:35:32.408Z,12.64
2023-05-09T15:37:59.591Z,12.63
2023-05-09T15:40:26.530Z,12.61
2023-05-09T15:42:53.555Z,12.59
2023-05-09T15:45:20.368Z,12.55
2023-05-09T15:47:47.346Z,12.51
2023-05-09T15:50:14.443Z,12.50
2023-05-09T15:52:42.098Z,12.47
2023-05-09T15:55:10.143Z,12.48
2023-05-09T15:57:37.132Z,12.47
2023-05-09T16:00:05.612Z,12.45
2023-05-09T16:02:39.603Z,12.42
2023-05-09T16:05:07.239Z,12.36
2023-05-09T16:07:35.647Z,12.28
2023-05-09T16:10:03.074Z,12.21
2023-05-09T16:12:32.946Z,12.15
2023-05-09T16:15:00.170Z,12.12
2023-05-09T16:17:27.081Z,12.10
2023-05-09T16:19:55.023Z,12.07
2023-05-09T16:22:21.940Z,12.02
2023-05-09T16:24:49.388Z,11.97
2023-05-09T16:27:16.556Z,11.92
2023-05-09T16:29:43.381Z,11.87
2023-05-09T16:32:10.790Z,11.82
2023-05-09T16:34:39.855Z,11.78
2023-05-09T16:37:06.723Z,11.74
2023-05-09T16:39:33.570Z,11.70
2023-05-09T16:42:00.416Z,11.67
2023-05-09T16:44:27.298Z,11.64
2023-05-09T16:46:54.103Z,11.61
2023-05-09T16:49:20.898Z,11.57
2023-05-09T16:51:47.824Z,11.55
2023-05-09T16:54:14.616Z,11.51
2023-05-09T16:56:42.564Z,11.47
2023-05-09T16:59:09.323Z,11.44
2023-05-09T17:01:36.240Z,11.40
2023-05-09T17:04:06.571Z,11.35
2023-05-09T17:06:34.297Z,11.29
2023-05-09T17:09:01.398Z,11.25
2023-05-09T17:11:28.604Z,11.19
2023-05-09T17:13:55.465Z,11.14
2023-05-09T17:16:22.404Z,11.07
2023-05-09T17:18:49.277Z,11.01
2023-05-09T17:21:16.430Z,10.95
2023-05-09T17:23:43.471Z,10.88
2023-05-09T17:26:10.333Z,10.81
2023-05-09T17:28:37.199Z,10.77
2023-05-09T17:31:04.396Z,10.72
2023-05-09T17:33:31.500Z,10.68
2023-05-09T17:36:00.385Z,10.63
2023-05-09T17:38:27.168Z,10.59
2023-05-09T17:40:54.095Z,10.53
2023-05-09T17:43:21.834Z,10.48
2023-05-09T17:45:48.786Z,10.44
2023-05-09T17:48:16.042Z,10.38
2023-05-09T17:50:43.958Z,10.32
2023-05-09T17:53:10.852Z,10.25
2023-05-09T17:55:37.798Z,10.19
2023-05-09T17:58:04.669Z,10.13
2023-05-09T18:00:31.642Z,10.09
2023-05-09T18:03:00.796Z,10.04
2023-05-09T18:05:27.929Z,9.99
2023-05-09T18:07:54.776Z,9.96
2023-05-09T18:10:21.583Z,9.91
2023-05-09T18:12:48.488Z,9.85
2023-05-09T18:15:15.319Z,9.82
2023-05-09T18:17:42.325Z,9.76
2023-05-09T18:20:09.568Z,9.72
2023-05-09T18:22:37.500Z,9.68
2023-05-09T18:25:04.635Z,9.64
2023-05-09T18:27:32.448Z,9.58
2023-05-09T18:29:59.206Z,9.53
2023-05-09T18:32:28.058Z,9.48
2023-05-09T18:34:54.939Z,9.44
2023-05-09T18:37:22.866Z,9.41
2023-05-09T18:39:49.784Z,9.41
2023-05-09T18:42:16.663Z,9.38
2023-05-09T18:44:43.652Z,9.36
2023-05-09T18:47:10.644Z,9.34
2023-05-09T18:49:38.752Z,9.30
2023-05-09T18:52:05.595Z,9.28
2023-05-09T18:54:32.442Z,9.24
2023-05-09T18:56:59.198Z,9.19
2023-05-09T18:59:26.158Z,9.15
2023-05-09T19:01:53.175Z,9.11
2023-05-09T19:04:20.262Z,9.08
2023-05-09T19:06:47.321Z,9.04
2023-05-09T19:09:14.329Z,9.01
2023-05-09T19:11:41.376Z,8.97
2023-05-09T19:14:08.201Z,8.92
2023-05-09T19:16:35.063Z,8.86
2023-05-09T19:19:01.905Z,8.82
2023-05-09T19:21:29.096Z,8.78
2023-05-09T19:23:56.332Z,8.74
2023-05-09T19:26:23.116Z,8.71
2023-05-09T19:28:50.145Z,8.68
2023-05-09T19:31:18.941Z,8.66
2023-05-09T19:33:47.660Z,8.63
2023-05-09T19:36:14.482Z,8.60
2023-05-09T19:38:41.437Z,8.55
2023-05-09T19:41:08.374Z,8.51
2023-05-09T19:43:35.312Z,8.49
2023-05-09T19:46:02.255Z,8.49
2023-05-09T19:48:29.146Z,8.49
2023-05-09T19:50:57.813Z,8.49
2023-05-09T19:53:25.088Z,8.49
2023-05-09T19:55:52.345Z,8.50
2023-05-09T19:58:19.162Z,8.49
2023-05-09T20:00:45.992Z,8.47
2023-05-09T20:03:13.006Z,8.47
2023-05-09T20:05:39.950Z,8.47
2023-05-09T20:08:06.727Z,8.47
2023-05-09T20:10:34.254Z,8.48
2023-05-09T20:13:01.346Z,8.48
2023-05-09T20:15:28.277Z,8.47
2023-05-09T20:17:55.206Z,8.47
2023-05-09T20:20:22.190Z,8.48
2023-05-09T20:22:49.036Z,8.45
2023-05-09T20:25:16.580Z,8.41
2023-05-09T20:27:43.453Z,8.38
2023-05-09T20:30:10.945Z,8.36
2023-05-09T20:32:37.813Z,8.35
2023-05-09T20:35:04.941Z,8.33
2023-05-09T20:37:31.898Z,8.32
2023-05-09T20:40:01.065Z,8.30
2023-05-09T20:42:28.007Z,8.29
2023-05-09T20:44:55.304Z,8.28
2023-05-09T20:47:22.277Z,8.26
2023-05-09T20:49:49.208Z,8.26
2023-05-09T20:52:16.234Z,8.25
2023-05-09T20:54:42.972Z,8.24
2023-05-09T20:57:09.736Z,8.23
2023-05-09T20:59:36.567Z,8.23
2023-05-09T21:02:03.412Z,8.21
2023-05-09T21:04:30.253Z,8.19
2023-05-09T21:06:57.084Z,8.17
2023-05-09T21:09:23.890Z,8.15
2023-05-09T21:11:50.840Z,8.12
2023-05-09T21:14:17.772Z,8.10
2023-05-09T21:16:44.538Z,8.05
2023-05-09T21:19:11.364Z,8.03
2023-05-09T21:21:38.087Z,8.03
2023-05-09T21:24:09.211Z,8.00
2023-05-09T21:26:39.149Z,7.97
2023-05-09T21:29:06.734Z,7.94
2023-05-09T21:31:34.416Z,7.92
2023-05-09T21:34:01.366Z,7.91
2023-05-09T21:36:28.190Z,7.89
2023-05-09T21:38:55.025Z,7.88
2023-05-09T21:41:22.020Z,7.89
2023-05-09T21:43:48.912Z,7.90
2023-05-09T21:46:15.674Z,7.91
2023-05-09T21:48:42.512Z,7.91
2023-05-09T21:51:09.238Z,7.92
2023-05-09T21:53:36.339Z,7.91
2023-05-09T21:56:03.245Z,7.90
2023-05-09T21:58:29.973Z,7.88
2023-05-09T22:00:56.756Z,7.88
2023-05-09T22:03:23.678Z,7.87
2023-05-09T22:05:50.676Z,7.87
2023-05-09T22:08:17.520Z,7.87
2023-05-09T22:10:44.331Z,7.87
2023-05-09T22:13:11.142Z,7.87
2023-05-09T22:15:37.946Z,7.88
2023-05-09T22:18:04.868Z,7.87
2023-05-09T22:20:31.624Z,7.86
2023-05-09T22:22:58.562Z,7.85
2023-05-09T22:25:25.758Z,7.82
2023-05-09T22:27:52.526Z,7.80
2023-05-09T22:30:19.341Z,7.79
2023-05-09T22:32:46.196Z,7.79
2023-05-09T22:35:12.990Z,7.79
2023-05-09T22:37:39.878Z,7.77
2023-05-09T22:40:07.334Z,7.74
2023-05-09T22:42:34.920Z,7.73
2023-05-09T22:45:02.058Z,7.71
2023-05-09T22:47:28.969Z,7.71
2023-05-09T22:49:56.037Z,7.71
2023-05-09T22:52:22.910Z,7.72
2023-05-09T22:54:49.794Z,7.71
2023-05-09T22:57:19.300Z,7.70
2023-05-09T22:59:46.571Z,7.69
2023-05-09T23:02:13.471Z,7.67
2023-05-09T23:04:40.249Z,7.66
2023-05-09T23:07:07.902Z,7.65
2023-05-09T23:09:35.015Z,7.65
2023-05-09T23:12:02.788Z,7.62
2023-05-09T23:14:29.662Z,7.63
2023-05-09T23:16:56.731Z,7.62
2023-05-09T23:19:23.708Z,7.61
2023-05-09T23:21:50.646Z,7.60
2023-05-09T23:24:17.653Z,7.59
2023-05-09T23:26:44.810Z,7.59
2023-05-09T23:29:11.833Z,7.57
2023-05-09T23:31:39.153Z,7.55
2023-05-09T23:34:06.160Z,7.53
2023-05-09T23:36:33.073Z,7.52
2023-05-09T23:38:59.945Z,7.51
2023-05-09T23:41:26.738Z,7.51
2023-05-09T23:43:53.662Z,7.50
2023-05-09T23:46:20.536Z,7.50
2023-05-09T23:48:47.400Z,7.50
2023-05-09T23:51:14.188Z,7.48
2023-05-09T23:53:41.203Z,7.47
2023-05-09T23:56:08.353Z,7.47
2023-05-09T23:58:35.136Z,7.46
